sensor_id;sensor_type;location;lat;lon;timestamp;P1;durP1;ratioP1;P2;durP2;ratioP2
12968;SDS011;6549;53.128;8.182;2023-07-20T00:02:27;3.03;;;2.25;;
12968;SDS011;6549;53.128;8.182;2023-07-20T00:05:28;2.63;;;1.95;;
12968;SDS011;6549;53.128;8.182;2023-07-20T00:08:40;2.50;;;1.90;;
12968;SDS011;6549;53.128;8.182;2023-07-20T00:11:47;2.10;;;1.90;;
12968;SDS011;6549;53.128;8.182;2023-07-20T00:14:50;2.22;;;2.00;;
12968;SDS011;6549;53.128;8.182;2023-07-20T00:17:53;1.98;;;1.70;;
12968;SDS011;6549;53.128;8.182;2023-07-20T00:20:54;2.83;;;1.95;;
12968;SDS011;6549;53.128;8.182;2023-07-20T00:23:57;4.05;;;2.13;;
12968;SDS011;6549;53.128;8.182;2023-07-20T00:27:16;1.50;;;1.40;;
12968;SDS011;6549;53.128;8.182;2023-07-20T00:30:16;2.10;;;1.52;;
12968;SDS011;6549;53.128;8.182;2023-07-20T00:33:18;2.20;;;1.80;;
12968;SDS011;6549;53.128;8.182;2023-07-20T00:36:19;1.92;;;1.60;;
12968;SDS011;6549;53.128;8.182;2023-07-20T00:39:19;5.50;;;2.00;;
12968;SDS011;6549;53.128;8.182;2023-07-20T00:42:19;2.03;;;1.80;;
12968;SDS011;6549;53.128;8.182;2023-07-20T00:45:20;2.95;;;2.30;;
12968;SDS011;6549;53.128;8.182;2023-07-20T00:48:20;2.65;;;2.03;;
12968;SDS011;6549;53.128;8.182;2023-07-20T00:51:21;2.00;;;1.80;;
12968;SDS011;6549;53.128;8.182;2023-07-20T00:54:26;3.15;;;2.20;;
12968;SDS011;6549;53.128;8.182;2023-07-20T00:57:30;5.30;;;2.70;;
12968;SDS011;6549;53.128;8.182;2023-07-20T01:00:33;3.75;;;2.60;;
12968;SDS011;6549;53.128;8.182;2023-07-20T01:03:33;2.63;;;2.28;;
12968;SDS011;6549;53.128;8.182;2023-07-20T01:06:36;2.65;;;2.25;;
12968;SDS011;6549;53.128;8.182;2023-07-20T01:09:48;3.97;;;3.33;;
12968;SDS011;6549;53.128;8.182;2023-07-20T01:13:10;4.43;;;2.88;;
12968;SDS011;6549;53.128;8.182;2023-07-20T01:16:14;3.70;;;2.92;;
12968;SDS011;6549;53.128;8.182;2023-07-20T01:19:14;3.03;;;2.55;;
12968;SDS011;6549;53.128;8.182;2023-07-20T01:25:45;2.22;;;1.90;;
12968;SDS011;6549;53.128;8.182;2023-07-20T01:32:35;2.95;;;2.20;;
12968;SDS011;6549;53.128;8.182;2023-07-20T01:35:38;3.25;;;2.47;;
12968;SDS011;6549;53.128;8.182;2023-07-20T01:38:41;2.95;;;2.33;;
12968;SDS011;6549;53.128;8.182;2023-07-20T01:41:42;5.25;;;3.65;;
12968;SDS011;6549;53.128;8.182;2023-07-20T01:44:46;2.47;;;2.20;;
12968;SDS011;6549;53.128;8.182;2023-07-20T01:47:46;3.47;;;2.33;;
12968;SDS011;6549;53.128;8.182;2023-07-20T01:50:46;4.43;;;2.60;;
12968;SDS011;6549;53.128;8.182;2023-07-20T01:53:47;2.55;;;2.35;;
12968;SDS011;6549;53.128;8.182;2023-07-20T01:56:47;2.75;;;2.53;;
12968;SDS011;6549;53.128;8.182;2023-07-20T01:59:48;2.83;;;2.53;;
12968;SDS011;6549;53.128;8.182;2023-07-20T02:02:48;4.25;;;2.85;;
12968;SDS011;6549;53.128;8.182;2023-07-20T02:05:48;4.10;;;3.63;;
12968;SDS011;6549;53.128;8.182;2023-07-20T02:08:49;3.45;;;2.83;;
12968;SDS011;6549;53.128;8.182;2023-07-20T02:11:49;5.72;;;3.25;;
12968;SDS011;6549;53.128;8.182;2023-07-20T02:14:50;2.65;;;2.42;;
12968;SDS011;6549;53.128;8.182;2023-07-20T02:17:51;2.97;;;2.65;;
12968;SDS011;6549;53.128;8.182;2023-07-20T02:20:52;4.05;;;2.75;;
12968;SDS011;6549;53.128;8.182;2023-07-20T02:23:54;4.07;;;2.80;;
12968;SDS011;6549;53.128;8.182;2023-07-20T02:26:54;3.47;;;2.90;;
12968;SDS011;6549;53.128;8.182;2023-07-20T02:29:54;4.22;;;3.80;;
12968;SDS011;6549;53.128;8.182;2023-07-20T02:32:55;3.65;;;3.03;;
12968;SDS011;6549;53.128;8.182;2023-07-20T02:35:58;5.25;;;4.13;;
12968;SDS011;6549;53.128;8.182;2023-07-20T02:38:58;6.15;;;4.70;;
12968;SDS011;6549;53.128;8.182;2023-07-20T02:41:59;6.63;;;4.43;;
12968;SDS011;6549;53.128;8.182;2023-07-20T02:44:59;5.75;;;4.07;;
12968;SDS011;6549;53.128;8.182;2023-07-20T02:47:59;4.43;;;3.58;;
12968;SDS011;6549;53.128;8.182;2023-07-20T02:51:00;5.55;;;3.47;;
12968;SDS011;6549;53.128;8.182;2023-07-20T02:54:01;3.50;;;3.13;;
12968;SDS011;6549;53.128;8.182;2023-07-20T02:57:01;3.83;;;3.10;;
12968;SDS011;6549;53.128;8.182;2023-07-20T03:00:02;4.95;;;3.60;;
12968;SDS011;6549;53.128;8.182;2023-07-20T03:03:04;4.45;;;3.63;;
12968;SDS011;6549;53.128;8.182;2023-07-20T03:06:09;5.80;;;4.03;;
12968;SDS011;6549;53.128;8.182;2023-07-20T03:09:09;4.05;;;3.33;;
12968;SDS011;6549;53.128;8.182;2023-07-20T03:12:10;5.78;;;3.95;;
12968;SDS011;6549;53.128;8.182;2023-07-20T03:15:10;5.10;;;3.88;;
12968;SDS011;6549;53.128;8.182;2023-07-20T03:18:11;6.38;;;4.20;;
12968;SDS011;6549;53.128;8.182;2023-07-20T03:21:11;5.82;;;4.35;;
12968;SDS011;6549;53.128;8.182;2023-07-20T03:24:12;7.22;;;5.50;;
12968;SDS011;6549;53.128;8.182;2023-07-20T03:27:12;6.35;;;4.90;;
12968;SDS011;6549;53.128;8.182;2023-07-20T03:30:13;5.38;;;3.97;;
12968;SDS011;6549;53.128;8.182;2023-07-20T03:33:14;6.15;;;4.05;;
12968;SDS011;6549;53.128;8.182;2023-07-20T03:36:14;5.57;;;4.10;;
12968;SDS011;6549;53.128;8.182;2023-07-20T03:39:14;5.18;;;3.58;;
12968;SDS011;6549;53.128;8.182;2023-07-20T03:42:14;5.60;;;3.95;;
12968;SDS011;6549;53.128;8.182;2023-07-20T03:45:15;3.90;;;3.13;;
12968;SDS011;6549;53.128;8.182;2023-07-20T03:48:16;5.13;;;3.33;;
12968;SDS011;6549;53.128;8.182;2023-07-20T03:51:17;5.73;;;3.23;;
12968;SDS011;6549;53.128;8.182;2023-07-20T03:54:17;4.50;;;3.47;;
12968;SDS011;6549;53.128;8.182;2023-07-20T03:57:19;4.68;;;3.17;;
12968;SDS011;6549;53.128;8.182;2023-07-20T04:00:19;4.35;;;3.22;;
12968;SDS011;6549;53.128;8.182;2023-07-20T04:03:20;5.85;;;3.00;;
12968;SDS011;6549;53.128;8.182;2023-07-20T04:06:20;4.40;;;3.20;;
12968;SDS011;6549;53.128;8.182;2023-07-20T04:09:21;3.30;;;2.95;;
12968;SDS011;6549;53.128;8.182;2023-07-20T04:12:21;5.45;;;3.50;;
12968;SDS011;6549;53.128;8.182;2023-07-20T04:15:22;4.38;;;3.25;;
12968;SDS011;6549;53.128;8.182;2023-07-20T04:18:22;6.03;;;3.35;;
12968;SDS011;6549;53.128;8.182;2023-07-20T04:21:23;4.40;;;3.10;;
12968;SDS011;6549;53.128;8.182;2023-07-20T04:24:25;4.45;;;2.92;;
12968;SDS011;6549;53.128;8.182;2023-07-20T04:27:26;5.10;;;3.63;;
12968;SDS011;6549;53.128;8.182;2023-07-20T04:30:26;3.30;;;2.95;;
12968;SDS011;6549;53.128;8.182;2023-07-20T04:33:27;5.20;;;3.50;;
12968;SDS011;6549;53.128;8.182;2023-07-20T04:36:28;5.23;;;3.63;;
12968;SDS011;6549;53.128;8.182;2023-07-20T04:39:29;4.78;;;3.85;;
12968;SDS011;6549;53.128;8.182;2023-07-20T04:42:32;4.70;;;3.63;;
12968;SDS011;6549;53.128;8.182;2023-07-20T04:45:32;4.88;;;3.70;;
12968;SDS011;6549;53.128;8.182;2023-07-20T04:48:33;5.20;;;3.78;;
12968;SDS011;6549;53.128;8.182;2023-07-20T04:51:33;6.38;;;4.55;;
12968;SDS011;6549;53.128;8.182;2023-07-20T04:54:34;6.45;;;4.32;;
12968;SDS011;6549;53.128;8.182;2023-07-20T04:57:34;7.60;;;5.07;;
12968;SDS011;6549;53.128;8.182;2023-07-20T05:00:35;5.43;;;3.90;;
12968;SDS011;6549;53.128;8.182;2023-07-20T05:03:38;8.23;;;3.65;;
12968;SDS011;6549;53.128;8.182;2023-07-20T05:06:38;6.53;;;3.72;;
12968;SDS011;6549;53.128;8.182;2023-07-20T05:09:38;5.70;;;3.90;;
12968;SDS011;6549;53.128;8.182;2023-07-20T05:12:39;5.40;;;3.67;;
12968;SDS011;6549;53.128;8.182;2023-07-20T05:15:39;6.22;;;4.72;;
12968;SDS011;6549;53.128;8.182;2023-07-20T05:18:39;6.80;;;4.85;;
12968;SDS011;6549;53.128;8.182;2023-07-20T05:21:40;6.35;;;4.00;;
12968;SDS011;6549;53.128;8.182;2023-07-20T05:24:40;7.45;;;3.95;;
12968;SDS011;6549;53.128;8.182;2023-07-20T05:27:40;5.05;;;3.30;;
12968;SDS011;6549;53.128;8.182;2023-07-20T05:30:41;5.72;;;3.65;;
12968;SDS011;6549;53.128;8.182;2023-07-20T05:33:41;6.68;;;3.28;;
12968;SDS011;6549;53.128;8.182;2023-07-20T05:36:41;5.80;;;3.13;;
12968;SDS011;6549;53.128;8.182;2023-07-20T05:39:42;4.05;;;3.13;;
12968;SDS011;6549;53.128;8.182;2023-07-20T05:42:42;6.68;;;2.97;;
12968;SDS011;6549;53.128;8.182;2023-07-20T05:45:43;4.40;;;2.50;;
12968;SDS011;6549;53.128;8.182;2023-07-20T05:48:44;3.83;;;2.20;;
12968;SDS011;6549;53.128;8.182;2023-07-20T05:51:45;2.22;;;1.98;;
12968;SDS011;6549;53.128;8.182;2023-07-20T05:54:46;3.50;;;2.10;;
12968;SDS011;6549;53.128;8.182;2023-07-20T05:57:47;3.22;;;2.20;;
12968;SDS011;6549;53.128;8.182;2023-07-20T06:00:48;4.03;;;2.10;;
12968;SDS011;6549;53.128;8.182;2023-07-20T06:03:49;4.32;;;1.98;;
12968;SDS011;6549;53.128;8.182;2023-07-20T06:06:49;4.88;;;2.03;;
12968;SDS011;6549;53.128;8.182;2023-07-20T06:09:49;3.50;;;2.00;;
12968;SDS011;6549;53.128;8.182;2023-07-20T06:12:50;3.70;;;1.60;;
12968;SDS011;6549;53.128;8.182;2023-07-20T06:15:50;3.97;;;2.03;;
12968;SDS011;6549;53.128;8.182;2023-07-20T06:18:50;2.95;;;1.55;;
12968;SDS011;6549;53.128;8.182;2023-07-20T06:21:51;3.22;;;1.50;;
12968;SDS011;6549;53.128;8.182;2023-07-20T06:24:51;2.58;;;1.50;;
12968;SDS011;6549;53.128;8.182;2023-07-20T06:27:51;6.28;;;1.50;;
12968;SDS011;6549;53.128;8.182;2023-07-20T06:30:52;3.83;;;1.52;;
12968;SDS011;6549;53.128;8.182;2023-07-20T06:33:52;4.60;;;1.52;;
12968;SDS011;6549;53.128;8.182;2023-07-20T06:36:53;2.83;;;1.70;;
12968;SDS011;6549;53.128;8.182;2023-07-20T06:39:53;3.47;;;2.00;;
12968;SDS011;6549;53.128;8.182;2023-07-20T06:42:53;3.92;;;1.50;;
12968;SDS011;6549;53.128;8.182;2023-07-20T06:45:54;2.35;;;1.30;;
12968;SDS011;6549;53.128;8.182;2023-07-20T06:48:54;5.32;;;1.77;;
12968;SDS011;6549;53.128;8.182;2023-07-20T06:51:55;3.30;;;1.45;;
12968;SDS011;6549;53.128;8.182;2023-07-20T06:54:55;3.75;;;1.30;;
12968;SDS011;6549;53.128;8.182;2023-07-20T06:57:55;1.73;;;1.20;;
12968;SDS011;6549;53.128;8.182;2023-07-20T07:00:56;4.93;;;1.60;;
12968;SDS011;6549;53.128;8.182;2023-07-20T07:03:56;3.35;;;1.95;;
12968;SDS011;6549;53.128;8.182;2023-07-20T07:06:56;2.75;;;1.60;;
12968;SDS011;6549;53.128;8.182;2023-07-20T07:09:57;2.92;;;1.50;;
12968;SDS011;6549;53.128;8.182;2023-07-20T07:12:57;4.75;;;1.65;;
12968;SDS011;6549;53.128;8.182;2023-07-20T07:15:57;3.72;;;1.38;;
12968;SDS011;6549;53.128;8.182;2023-07-20T07:18:58;3.10;;;1.40;;
12968;SDS011;6549;53.128;8.182;2023-07-20T07:21:58;3.20;;;1.50;;
12968;SDS011;6549;53.128;8.182;2023-07-20T07:24:59;3.13;;;1.20;;
12968;SDS011;6549;53.128;8.182;2023-07-20T07:27:59;4.25;;;1.63;;
12968;SDS011;6549;53.128;8.182;2023-07-20T07:30:59;4.90;;;1.20;;
12968;SDS011;6549;53.128;8.182;2023-07-20T07:34:00;2.72;;;1.20;;
12968;SDS011;6549;53.128;8.182;2023-07-20T07:37:00;2.63;;;1.30;;
12968;SDS011;6549;53.128;8.182;2023-07-20T07:40:01;3.78;;;1.40;;
12968;SDS011;6549;53.128;8.182;2023-07-20T07:43:01;4.28;;;1.30;;
12968;SDS011;6549;53.128;8.182;2023-07-20T07:46:02;1.77;;;1.25;;
12968;SDS011;6549;53.128;8.182;2023-07-20T07:49:02;2.58;;;1.08;;
12968;SDS011;6549;53.128;8.182;2023-07-20T07:52:02;3.85;;;1.40;;
12968;SDS011;6549;53.128;8.182;2023-07-20T07:55:03;2.40;;;1.30;;
12968;SDS011;6549;53.128;8.182;2023-07-20T07:58:04;3.50;;;1.30;;
12968;SDS011;6549;53.128;8.182;2023-07-20T08:01:04;2.05;;;1.27;;
12968;SDS011;6549;53.128;8.182;2023-07-20T08:04:04;3.53;;;1.38;;
12968;SDS011;6549;53.128;8.182;2023-07-20T08:07:05;2.85;;;1.30;;
12968;SDS011;6549;53.128;8.182;2023-07-20T08:10:05;3.88;;;1.48;;
12968;SDS011;6549;53.128;8.182;2023-07-20T08:13:06;2.03;;;1.30;;
12968;SDS011;6549;53.128;8.182;2023-07-20T08:16:06;2.25;;;1.42;;
12968;SDS011;6549;53.128;8.182;2023-07-20T08:19:07;2.05;;;1.40;;
12968;SDS011;6549;53.128;8.182;2023-07-20T08:22:07;3.10;;;1.60;;
12968;SDS011;6549;53.128;8.182;2023-07-20T08:25:08;3.40;;;1.73;;
12968;SDS011;6549;53.128;8.182;2023-07-20T08:28:09;3.05;;;1.40;;
12968;SDS011;6549;53.128;8.182;2023-07-20T08:31:11;2.05;;;1.40;;
12968;SDS011;6549;53.128;8.182;2023-07-20T08:34:11;4.53;;;1.55;;
12968;SDS011;6549;53.128;8.182;2023-07-20T08:37:11;4.07;;;1.40;;
12968;SDS011;6549;53.128;8.182;2023-07-20T08:40:12;5.75;;;1.50;;
12968;SDS011;6549;53.128;8.182;2023-07-20T08:43:14;4.30;;;1.90;;
12968;SDS011;6549;53.128;8.182;2023-07-20T08:46:16;4.25;;;1.70;;
12968;SDS011;6549;53.128;8.182;2023-07-20T08:49:17;2.97;;;1.60;;
12968;SDS011;6549;53.128;8.182;2023-07-20T08:52:18;2.17;;;1.42;;
12968;SDS011;6549;53.128;8.182;2023-07-20T08:55:19;3.63;;;1.60;;
12968;SDS011;6549;53.128;8.182;2023-07-20T08:58:23;5.18;;;1.58;;
12968;SDS011;6549;53.128;8.182;2023-07-20T09:01:23;7.45;;;1.77;;
12968;SDS011;6549;53.128;8.182;2023-07-20T09:04:25;3.05;;;1.50;;
12968;SDS011;6549;53.128;8.182;2023-07-20T09:07:25;4.80;;;1.80;;
12968;SDS011;6549;53.128;8.182;2023-07-20T09:10:26;3.35;;;1.85;;
12968;SDS011;6549;53.128;8.182;2023-07-20T09:13:26;2.65;;;1.80;;
12968;SDS011;6549;53.128;8.182;2023-07-20T09:16:27;3.80;;;1.80;;
12968;SDS011;6549;53.128;8.182;2023-07-20T09:19:29;4.37;;;1.90;;
12968;SDS011;6549;53.128;8.182;2023-07-20T09:22:30;4.40;;;1.90;;
12968;SDS011;6549;53.128;8.182;2023-07-20T09:25:31;3.75;;;1.90;;
12968;SDS011;6549;53.128;8.182;2023-07-20T09:28:31;2.50;;;1.55;;
12968;SDS011;6549;53.128;8.182;2023-07-20T09:31:42;3.53;;;1.80;;
12968;SDS011;6549;53.128;8.182;2023-07-20T09:34:43;4.70;;;2.08;;
12968;SDS011;6549;53.128;8.182;2023-07-20T09:37:47;3.53;;;1.85;;
12968;SDS011;6549;53.128;8.182;2023-07-20T09:40:52;6.60;;;2.13;;
12968;SDS011;6549;53.128;8.182;2023-07-20T09:43:52;3.97;;;2.03;;
12968;SDS011;6549;53.128;8.182;2023-07-20T09:46:54;3.42;;;2.20;;
12968;SDS011;6549;53.128;8.182;2023-07-20T09:49:59;4.70;;;2.28;;
12968;SDS011;6549;53.128;8.182;2023-07-20T09:53:00;5.63;;;2.20;;
12968;SDS011;6549;53.128;8.182;2023-07-20T09:56:02;6.68;;;2.50;;
12968;SDS011;6549;53.128;8.182;2023-07-20T09:59:03;5.20;;;2.30;;
12968;SDS011;6549;53.128;8.182;2023-07-20T10:02:04;5.40;;;2.72;;
12968;SDS011;6549;53.128;8.182;2023-07-20T10:05:18;4.68;;;1.80;;
12968;SDS011;6549;53.128;8.182;2023-07-20T10:08:19;5.00;;;2.15;;
12968;SDS011;6549;53.128;8.182;2023-07-20T10:11:23;5.05;;;2.20;;
12968;SDS011;6549;53.128;8.182;2023-07-20T10:14:29;3.60;;;1.58;;
12968;SDS011;6549;53.128;8.182;2023-07-20T10:17:33;3.88;;;1.63;;
12968;SDS011;6549;53.128;8.182;2023-07-20T10:20:38;4.93;;;2.22;;
12968;SDS011;6549;53.128;8.182;2023-07-20T10:23:41;2.80;;;1.60;;
12968;SDS011;6549;53.128;8.182;2023-07-20T10:26:42;3.60;;;1.33;;
12968;SDS011;6549;53.128;8.182;2023-07-20T10:29:42;5.20;;;1.70;;
12968;SDS011;6549;53.128;8.182;2023-07-20T10:32:43;4.25;;;1.50;;
12968;SDS011;6549;53.128;8.182;2023-07-20T10:35:58;4.23;;;1.53;;
12968;SDS011;6549;53.128;8.182;2023-07-20T10:39:02;3.90;;;1.40;;
12968;SDS011;6549;53.128;8.182;2023-07-20T10:42:11;3.63;;;1.40;;
12968;SDS011;6549;53.128;8.182;2023-07-20T10:45:12;2.80;;;1.30;;
12968;SDS011;6549;53.128;8.182;2023-07-20T10:51:21;3.78;;;1.48;;
12968;SDS011;6549;53.128;8.182;2023-07-20T10:57:31;2.13;;;1.20;;
12968;SDS011;6549;53.128;8.182;2023-07-20T11:00:31;3.58;;;1.60;;
12968;SDS011;6549;53.128;8.182;2023-07-20T11:03:33;3.70;;;1.40;;
12968;SDS011;6549;53.128;8.182;2023-07-20T11:06:35;2.65;;;1.40;;
12968;SDS011;6549;53.128;8.182;2023-07-20T11:09:37;3.60;;;1.38;;
12968;SDS011;6549;53.128;8.182;2023-07-20T11:15:46;3.33;;;1.20;;
12968;SDS011;6549;53.128;8.182;2023-07-20T11:18:47;1.05;;;0.90;;
12968;SDS011;6549;53.128;8.182;2023-07-20T11:21:49;1.42;;;1.10;;
12968;SDS011;6549;53.128;8.182;2023-07-20T11:24:54;2.08;;;0.80;;
12968;SDS011;6549;53.128;8.182;2023-07-20T11:27:55;1.77;;;0.90;;
12968;SDS011;6549;53.128;8.182;2023-07-20T11:30:58;1.75;;;1.00;;
12968;SDS011;6549;53.128;8.182;2023-07-20T11:33:59;2.75;;;1.20;;
12968;SDS011;6549;53.128;8.182;2023-07-20T11:36:59;1.85;;;0.90;;
12968;SDS011;6549;53.128;8.182;2023-07-20T11:40:00;3.10;;;1.75;;
12968;SDS011;6549;53.128;8.182;2023-07-20T11:43:00;3.58;;;1.00;;
12968;SDS011;6549;53.128;8.182;2023-07-20T11:46:00;1.92;;;1.10;;
12968;SDS011;6549;53.128;8.182;2023-07-20T11:49:01;4.95;;;1.00;;
12968;SDS011;6549;53.128;8.182;2023-07-20T11:52:02;1.63;;;0.90;;
12968;SDS011;6549;53.128;8.182;2023-07-20T11:55:04;3.28;;;1.10;;
12968;SDS011;6549;53.128;8.182;2023-07-20T11:58:05;5.53;;;1.30;;
12968;SDS011;6549;53.128;8.182;2023-07-20T12:01:06;4.13;;;1.20;;
12968;SDS011;6549;53.128;8.182;2023-07-20T12:04:07;3.08;;;1.10;;
12968;SDS011;6549;53.128;8.182;2023-07-20T12:07:10;4.18;;;1.13;;
12968;SDS011;6549;53.128;8.182;2023-07-20T12:10:12;2.30;;;1.10;;
12968;SDS011;6549;53.128;8.182;2023-07-20T12:13:12;3.00;;;1.10;;
12968;SDS011;6549;53.128;8.182;2023-07-20T12:16:15;2.28;;;0.90;;
12968;SDS011;6549;53.128;8.182;2023-07-20T12:19:17;2.13;;;1.02;;
12968;SDS011;6549;53.128;8.182;2023-07-20T12:22:17;3.83;;;1.17;;
12968;SDS011;6549;53.128;8.182;2023-07-20T12:25:17;4.55;;;1.48;;
12968;SDS011;6549;53.128;8.182;2023-07-20T12:28:20;2.55;;;1.10;;
12968;SDS011;6549;53.128;8.182;2023-07-20T12:31:22;2.80;;;1.10;;
12968;SDS011;6549;53.128;8.182;2023-07-20T12:34:24;6.45;;;1.52;;
12968;SDS011;6549;53.128;8.182;2023-07-20T12:37:24;2.65;;;0.90;;
12968;SDS011;6549;53.128;8.182;2023-07-20T12:40:25;3.72;;;1.33;;
12968;SDS011;6549;53.128;8.182;2023-07-20T12:43:25;2.40;;;1.10;;
12968;SDS011;6549;53.128;8.182;2023-07-20T12:46:26;3.63;;;1.20;;
12968;SDS011;6549;53.128;8.182;2023-07-20T12:49:29;3.22;;;1.20;;
12968;SDS011;6549;53.128;8.182;2023-07-20T12:52:29;2.53;;;1.08;;
12968;SDS011;6549;53.128;8.182;2023-07-20T12:55:30;3.15;;;1.17;;
12968;SDS011;6549;53.128;8.182;2023-07-20T12:58:30;2.53;;;1.02;;
12968;SDS011;6549;53.128;8.182;2023-07-20T13:01:30;3.28;;;1.10;;
12968;SDS011;6549;53.128;8.182;2023-07-20T13:04:31;2.50;;;0.90;;
12968;SDS011;6549;53.128;8.182;2023-07-20T13:07:32;2.47;;;1.23;;
12968;SDS011;6549;53.128;8.182;2023-07-20T13:13:34;1.77;;;1.00;;
12968;SDS011;6549;53.128;8.182;2023-07-20T13:16:34;1.40;;;0.98;;
12968;SDS011;6549;53.128;8.182;2023-07-20T13:19:35;2.47;;;1.00;;
12968;SDS011;6549;53.128;8.182;2023-07-20T13:22:36;2.08;;;1.17;;
12968;SDS011;6549;53.128;8.182;2023-07-20T13:25:37;2.22;;;1.15;;
12968;SDS011;6549;53.128;8.182;2023-07-20T13:28:38;2.45;;;0.98;;
12968;SDS011;6549;53.128;8.182;2023-07-20T13:31:38;3.45;;;1.10;;
12968;SDS011;6549;53.128;8.182;2023-07-20T13:34:38;1.70;;;1.05;;
12968;SDS011;6549;53.128;8.182;2023-07-20T13:37:39;2.47;;;1.02;;
12968;SDS011;6549;53.128;8.182;2023-07-20T13:40:39;3.60;;;1.23;;
12968;SDS011;6549;53.128;8.182;2023-07-20T13:43:39;3.45;;;1.00;;
12968;SDS011;6549;53.128;8.182;2023-07-20T13:46:40;3.00;;;1.20;;
12968;SDS011;6549;53.128;8.182;2023-07-20T13:49:40;2.85;;;1.17;;
12968;SDS011;6549;53.128;8.182;2023-07-20T13:52:41;4.88;;;1.40;;
12968;SDS011;6549;53.128;8.182;2023-07-20T13:55:41;2.95;;;1.30;;
12968;SDS011;6549;53.128;8.182;2023-07-20T13:58:42;4.20;;;1.30;;
12968;SDS011;6549;53.128;8.182;2023-07-20T14:01:42;3.78;;;1.20;;
12968;SDS011;6549;53.128;8.182;2023-07-20T14:04:43;4.18;;;1.40;;
12968;SDS011;6549;53.128;8.182;2023-07-20T14:07:46;6.07;;;1.48;;
12968;SDS011;6549;53.128;8.182;2023-07-20T14:10:47;1.98;;;1.10;;
12968;SDS011;6549;53.128;8.182;2023-07-20T14:13:47;3.35;;;1.33;;
12968;SDS011;6549;53.128;8.182;2023-07-20T14:16:47;3.90;;;1.10;;
12968;SDS011;6549;53.128;8.182;2023-07-20T14:19:48;3.67;;;1.45;;
12968;SDS011;6549;53.128;8.182;2023-07-20T14:22:48;4.55;;;1.27;;
12968;SDS011;6549;53.128;8.182;2023-07-20T14:25:49;4.47;;;1.38;;
12968;SDS011;6549;53.128;8.182;2023-07-20T14:28:49;1.33;;;1.10;;
12968;SDS011;6549;53.128;8.182;2023-07-20T14:31:50;4.15;;;1.23;;
12968;SDS011;6549;53.128;8.182;2023-07-20T14:37:53;2.92;;;1.30;;
12968;SDS011;6549;53.128;8.182;2023-07-20T14:40:53;2.08;;;1.13;;
12968;SDS011;6549;53.128;8.182;2023-07-20T14:43:53;3.38;;;1.30;;
12968;SDS011;6549;53.128;8.182;2023-07-20T14:46:54;3.47;;;1.15;;
12968;SDS011;6549;53.128;8.182;2023-07-20T14:49:55;2.20;;;1.30;;
12968;SDS011;6549;53.128;8.182;2023-07-20T14:52:55;3.50;;;1.13;;
12968;SDS011;6549;53.128;8.182;2023-07-20T14:55:59;2.63;;;1.02;;
12968;SDS011;6549;53.128;8.182;2023-07-20T14:59:01;3.70;;;1.48;;
12968;SDS011;6549;53.128;8.182;2023-07-20T15:02:01;3.15;;;1.15;;
12968;SDS011;6549;53.128;8.182;2023-07-20T15:05:01;2.30;;;1.10;;
12968;SDS011;6549;53.128;8.182;2023-07-20T15:08:02;4.40;;;1.17;;
12968;SDS011;6549;53.128;8.182;2023-07-20T15:11:03;2.72;;;1.00;;
12968;SDS011;6549;53.128;8.182;2023-07-20T15:14:03;3.75;;;1.30;;
12968;SDS011;6549;53.128;8.182;2023-07-20T15:17:04;2.67;;;1.10;;
12968;SDS011;6549;53.128;8.182;2023-07-20T15:20:05;2.20;;;1.00;;
12968;SDS011;6549;53.128;8.182;2023-07-20T15:23:07;2.90;;;1.10;;
12968;SDS011;6549;53.128;8.182;2023-07-20T15:26:07;2.03;;;0.90;;
12968;SDS011;6549;53.128;8.182;2023-07-20T15:29:07;1.95;;;1.17;;
12968;SDS011;6549;53.128;8.182;2023-07-20T15:32:08;1.98;;;1.10;;
12968;SDS011;6549;53.128;8.182;2023-07-20T15:35:09;2.45;;;1.15;;
12968;SDS011;6549;53.128;8.182;2023-07-20T15:38:10;3.33;;;1.27;;
12968;SDS011;6549;53.128;8.182;2023-07-20T15:41:11;2.45;;;1.45;;
12968;SDS011;6549;53.128;8.182;2023-07-20T15:44:12;3.25;;;1.40;;
12968;SDS011;6549;53.128;8.182;2023-07-20T15:47:13;3.40;;;1.40;;
12968;SDS011;6549;53.128;8.182;2023-07-20T15:50:13;2.88;;;1.20;;
12968;SDS011;6549;53.128;8.182;2023-07-20T15:53:14;3.17;;;1.42;;
12968;SDS011;6549;53.128;8.182;2023-07-20T15:56:15;4.07;;;1.77;;
12968;SDS011;6549;53.128;8.182;2023-07-20T15:59:17;3.35;;;1.80;;
12968;SDS011;6549;53.128;8.182;2023-07-20T16:02:17;3.10;;;1.58;;
12968;SDS011;6549;53.128;8.182;2023-07-20T16:05:17;3.50;;;1.63;;
12968;SDS011;6549;53.128;8.182;2023-07-20T16:08:18;5.45;;;1.90;;
12968;SDS011;6549;53.128;8.182;2023-07-20T16:11:18;3.08;;;1.80;;
12968;SDS011;6549;53.128;8.182;2023-07-20T16:14:21;3.33;;;1.60;;
12968;SDS011;6549;53.128;8.182;2023-07-20T16:17:21;2.40;;;1.50;;
12968;SDS011;6549;53.128;8.182;2023-07-20T16:20:21;4.70;;;1.70;;
12968;SDS011;6549;53.128;8.182;2023-07-20T16:23:22;2.60;;;1.60;;
12968;SDS011;6549;53.128;8.182;2023-07-20T16:26:22;4.35;;;1.60;;
12968;SDS011;6549;53.128;8.182;2023-07-20T16:29:22;1.98;;;1.13;;
12968;SDS011;6549;53.128;8.182;2023-07-20T16:32:24;3.47;;;1.60;;
12968;SDS011;6549;53.128;8.182;2023-07-20T16:35:24;2.92;;;1.58;;
12968;SDS011;6549;53.128;8.182;2023-07-20T16:38:24;2.25;;;1.30;;
12968;SDS011;6549;53.128;8.182;2023-07-20T16:41:25;2.90;;;1.48;;
12968;SDS011;6549;53.128;8.182;2023-07-20T16:44:25;2.47;;;1.42;;
12968;SDS011;6549;53.128;8.182;2023-07-20T16:47:25;1.88;;;1.52;;
12968;SDS011;6549;53.128;8.182;2023-07-20T16:50:26;2.78;;;1.30;;
12968;SDS011;6549;53.128;8.182;2023-07-20T16:53:26;1.88;;;1.30;;
12968;SDS011;6549;53.128;8.182;2023-07-20T16:56:26;1.40;;;1.30;;
12968;SDS011;6549;53.128;8.182;2023-07-20T16:59:27;2.83;;;1.30;;
12968;SDS011;6549;53.128;8.182;2023-07-20T17:02:27;2.60;;;1.52;;
12968;SDS011;6549;53.128;8.182;2023-07-20T17:05:28;2.83;;;1.63;;
12968;SDS011;6549;53.128;8.182;2023-07-20T17:08:29;1.98;;;1.60;;
12968;SDS011;6549;53.128;8.182;2023-07-20T17:11:31;2.67;;;1.60;;
12968;SDS011;6549;53.128;8.182;2023-07-20T17:14:31;4.72;;;1.40;;
12968;SDS011;6549;53.128;8.182;2023-07-20T17:17:32;2.20;;;1.40;;
12968;SDS011;6549;53.128;8.182;2023-07-20T17:20:33;3.70;;;1.45;;
12968;SDS011;6549;53.128;8.182;2023-07-20T17:23:36;2.33;;;1.20;;
12968;SDS011;6549;53.128;8.182;2023-07-20T17:26:36;4.50;;;1.48;;
12968;SDS011;6549;53.128;8.182;2023-07-20T17:29:39;1.80;;;1.08;;
12968;SDS011;6549;53.128;8.182;2023-07-20T17:32:39;2.47;;;1.38;;
12968;SDS011;6549;53.128;8.182;2023-07-20T17:35:39;2.92;;;1.30;;
12968;SDS011;6549;53.128;8.182;2023-07-20T17:38:40;1.52;;;1.30;;
12968;SDS011;6549;53.128;8.182;2023-07-20T17:41:40;2.03;;;1.27;;
12968;SDS011;6549;53.128;8.182;2023-07-20T17:44:41;2.72;;;1.17;;
12968;SDS011;6549;53.128;8.182;2023-07-20T17:47:41;1.33;;;1.10;;
12968;SDS011;6549;53.128;8.182;2023-07-20T17:50:42;2.35;;;1.30;;
12968;SDS011;6549;53.128;8.182;2023-07-20T17:53:42;2.83;;;1.40;;
12968;SDS011;6549;53.128;8.182;2023-07-20T17:56:43;2.72;;;1.80;;
12968;SDS011;6549;53.128;8.182;2023-07-20T17:59:44;6.03;;;2.45;;
12968;SDS011;6549;53.128;8.182;2023-07-20T18:02:44;3.35;;;2.33;;
12968;SDS011;6549;53.128;8.182;2023-07-20T18:05:44;4.70;;;2.20;;
12968;SDS011;6549;53.128;8.182;2023-07-20T18:08:46;3.92;;;2.03;;
12968;SDS011;6549;53.128;8.182;2023-07-20T18:11:46;3.50;;;2.20;;
12968;SDS011;6549;53.128;8.182;2023-07-20T18:14:47;4.72;;;2.38;;
12968;SDS011;6549;53.128;8.182;2023-07-20T18:17:47;5.90;;;2.67;;
12968;SDS011;6549;53.128;8.182;2023-07-20T18:20:47;2.67;;;2.20;;
12968;SDS011;6549;53.128;8.182;2023-07-20T18:23:48;3.10;;;2.35;;
12968;SDS011;6549;53.128;8.182;2023-07-20T18:26:51;5.82;;;2.72;;
12968;SDS011;6549;53.128;8.182;2023-07-20T18:29:51;4.55;;;2.10;;
12968;SDS011;6549;53.128;8.182;2023-07-20T18:32:52;2.75;;;1.73;;
12968;SDS011;6549;53.128;8.182;2023-07-20T18:35:52;5.32;;;1.98;;
12968;SDS011;6549;53.128;8.182;2023-07-20T18:38:53;3.30;;;2.00;;
12968;SDS011;6549;53.128;8.182;2023-07-20T18:41:54;2.42;;;1.55;;
12968;SDS011;6549;53.128;8.182;2023-07-20T18:44:54;4.30;;;1.80;;
12968;SDS011;6549;53.128;8.182;2023-07-20T18:47:54;3.65;;;1.60;;
12968;SDS011;6549;53.128;8.182;2023-07-20T18:50:54;3.28;;;1.75;;